Time;durP1;ratioP1;P1;durP2;ratioP2;P2;SDS_P1;SDS_P2;PMS_P1;PMS_P2;Temp;Humidity;BMP_temperature;BMP_pressure;BME280_temperature;BME280_humidity;BME280_pressure;Samples;Min_cycle;Max_cycle;Signal;HPM_P1;HPM_P2
2022/06/12 00:00:22;;;;;;;2.90;0.52;;;14.10;99.90;;;;;;5026909;28;20064;-70
2022/06/12 00:02:47;;;;;;;5.15;0.68;;;14.10;99.90;;;;;;5031102;28;20018;-70
2022/06/12 00:05:16;;;;;;;1.65;0.60;;;14.10;99.90;;;;;;5030522;28;20060;-70
2022/06/12 00:07:41;;;;;;;2.00;0.55;;;13.80;99.90;;;;;;5030664;28;20052;-70
2022/06/12 00:10:08;;;;;;;3.20;0.70;;;14.10;99.90;;;;;;5030641;28;20374;-70
2022/06/12 00:12:35;;;;;;;4.07;1.00;;;14.00;99.90;;;;;;5030557;28;20024;-70
2022/06/12 00:15:01;;;;;;;3.38;0.77;;;13.90;99.90;;;;;;5030918;28;20040;-70
2022/06/12 00:17:26;;;;;;;3.63;1.20;;;13.80;99.90;;;;;;5022603;28;20463;-70
2022/06/12 00:19:52;;;;;;;2.55;1.23;;;13.80;99.90;;;;;;5021523;28;20034;-70
2022/06/12 00:22:18;;;;;;;2.35;1.23;;;13.80;99.90;;;;;;5030574;28;20017;-70
2022/06/12 00:24:44;;;;;;;3.72;1.30;;;13.70;99.90;;;;;;5029741;28;20048;-70
2022/06/12 00:27:09;;;;;;;3.58;1.52;;;13.60;99.90;;;;;;5023917;28;20383;-70
2022/06/12 00:29:37;;;;;;;4.97;1.63;;;13.60;99.90;;;;;;5028798;28;20045;-70
2022/06/12 00:32:15;;;;;;;4.90;1.45;;;13.60;99.90;;;;;;5028186;28;20014;-70
2022/06/12 00:34:45;;;;;;;5.28;2.20;;;13.60;99.90;;;;;;5028846;28;20026;-70
2022/06/12 00:37:12;;;;;;;5.07;1.60;;;13.50;99.90;;;;;;5028470;28;20502;-70
2022/06/12 00:39:39;;;;;;;3.17;2.00;;;13.50;99.90;;;;;;5028757;28;20112;-70
2022/06/12 00:42:06;;;;;;;4.18;1.55;;;13.50;99.90;;;;;;5029150;28;20108;-71
2022/06/12 00:44:42;;;;;;;3.90;1.83;;;13.50;99.10;;;;;;5030687;28;20434;-70
2022/06/12 00:47:12;;;;;;;8.38;1.75;;;13.40;99.90;;;;;;5030409;28;20022;-70
2022/06/12 00:49:48;;;;;;;4.78;1.65;;;13.40;99.90;;;;;;5025448;28;20059;-70
2022/06/12 00:52:43;;;;;;;5.35;1.70;;;13.40;99.90;;;;;;5029295;28;20049;-70
2022/06/12 00:55:37;;;;;;;3.92;1.90;;;13.30;99.90;;;;;;5020136;28;20044;-70
2022/06/12 00:58:07;;;;;;;3.00;1.10;;;13.30;99.70;;;;;;5029670;28;20502;-70
2022/06/12 01:00:34;;;;;;;4.22;1.88;;;12.90;99.90;;;;;;5030027;28;20029;-70
2022/06/12 01:03:00;;;;;;;6.45;2.17;;;13.10;99.90;;;;;;5030116;28;20025;-70
2022/06/12 01:08:13;;;;;;;3.53;1.50;;;12.90;99.90;;;;;;5030062;28;20025;-70
2022/06/12 01:10:41;;;;;;;3.33;1.40;;;13.00;99.90;;;;;;5029746;28;20393;-70
2022/06/12 01:13:15;;;;;;;4.03;1.70;;;12.60;99.90;;;;;;5025297;28;20490;-70
2022/06/12 01:15:44;;;;;;;6.18;1.85;;;13.00;99.90;;;;;;5021670;28;20029;-70
2022/06/12 01:18:13;;;;;;;3.70;1.83;;;13.00;99.90;;;;;;5029755;28;20072;-70
2022/06/12 01:20:57;;;;;;;3.67;1.52;;;13.00;99.90;;;;;;5030112;28;20482;-70
2022/06/12 01:23:23;;;;;;;2.08;1.27;;;;;;;;;;5028060;28;20445;-70
2022/06/12 01:25:55;;;;;;;9.32;2.60;;;13.00;99.90;;;;;;5029720;28;20025;-70
2022/06/12 01:28:44;;;;;;;4.72;1.88;;;12.90;99.90;;;;;;5029317;28;20026;-70
2022/06/12 01:31:13;;;;;;;5.95;1.45;;;12.90;99.90;;;;;;5029583;28;20105;-70
2022/06/12 01:33:52;;;;;;;9.38;2.97;;;12.90;99.90;;;;;;5029702;28;20402;-70
2022/06/12 01:36:29;;;;;;;5.95;1.75;;;12.80;99.90;;;;;;5029335;28;20029;-70
2022/06/12 01:38:59;;;;;;;4.55;1.67;;;12.80;99.90;;;;;;5028488;28;20017;-70
2022/06/12 01:41:43;;;;;;;8.40;2.05;;;12.80;99.90;;;;;;5027753;28;20029;-70
2022/06/12 01:44:22;;;;;;;;;;;12.90;99.90;;;;;;5027596;28;20043;-70
2022/06/12 01:47:02;;;;;;;7.45;1.58;;;12.70;99.90;;;;;;5029609;28;19959;-71
2022/06/12 01:49:44;;;;;;;5.22;1.70;;;12.40;99.90;;;;;;5029659;28;20084;-70
2022/06/12 01:52:23;;;;;;;5.15;1.80;;;12.70;99.90;;;;;;5028824;28;20026;-70
2022/06/12 01:54:57;;;;;;;5.05;1.65;;;12.60;99.90;;;;;;5029013;28;20022;-70
2022/06/12 01:57:36;;;;;;;4.15;1.50;;;12.60;99.90;;;;;;5028721;28;20021;-71
2022/06/12 02:00:08;;;;;;;4.97;1.60;;;12.70;99.90;;;;;;5029195;28;20072;-70
2022/06/12 02:02:43;;;;;;;4.00;1.95;;;12.60;99.90;;;;;;5028917;28;20022;-70
2022/06/12 02:05:36;;;;;;;11.00;2.00;;;12.50;99.90;;;;;;5028692;28;20042;-71
2022/06/12 02:08:23;;;;;;;6.88;2.22;;;12.70;99.90;;;;;;5027860;28;20032;-70
2022/06/12 02:13:11;;;;;;;8.50;2.15;;;12.50;99.90;;;;;;5028760;28;20029;-70
2022/06/12 02:13:53;;;;;;;6.43;1.80;;;12.30;99.90;;;;;;5029040;28;20067;-70
2022/06/12 02:16:28;;;;;;;10.98;2.22;;;12.50;99.90;;;;;;5028154;28;20487;-70
2022/06/12 02:19:00;;;;;;;5.88;1.88;;;12.50;99.90;;;;;;5029063;28;20026;-70
2022/06/12 02:21:37;;;;;;;4.72;1.27;;;12.50;99.90;;;;;;5028085;28;20033;-70
2022/06/12 02:24:21;;;;;;;4.30;1.80;;;12.40;99.90;;;;;;5028643;28;20034;-70
2022/06/12 02:26:57;;;;;;;;;;;12.50;99.90;;;;;;5029415;28;20029;-70
2022/06/12 02:29:28;;;;;;;7.35;2.35;;;12.50;99.90;;;;;;5028589;28;19936;-70
2022/06/12 02:31:55;;;;;;;7.55;1.63;;;12.40;99.90;;;;;;5028876;28;20034;-70
2022/06/12 02:34:27;;;;;;;7.43;2.05;;;12.40;99.90;;;;;;5028550;28;20092;-70
2022/06/12 02:37:10;;;;;;;7.35;1.60;;;12.50;99.90;;;;;;5026463;28;20040;-71
2022/06/12 02:39:43;;;;;;;5.70;1.80;;;12.40;99.90;;;;;;5027471;28;20104;-70
2022/06/12 02:42:19;;;;;;;8.82;2.40;;;12.40;99.90;;;;;;5028325;28;20022;-70
2022/06/12 02:44:45;;;;;;;6.32;2.13;;;;;;;;;;5029091;28;20040;-70
2022/06/12 02:47:18;;;;;;;8.32;2.00;;;12.30;99.90;;;;;;5028547;28;20025;-70
2022/06/12 02:49:46;;;;;;;7.97;1.80;;;12.30;99.90;;;;;;5028792;28;20020;-70
2022/06/12 02:52:20;;;;;;;10.07;2.33;;;12.30;99.90;;;;;;5027976;28;20027;-70
2022/06/12 02:55:08;;;;;;;7.90;2.22;;;11.80;99.90;;;;;;5028716;28;20021;-70
2022/06/12 02:58:13;;;;;;;9.40;2.42;;;12.20;99.90;;;;;;5028403;28;20070;-70
2022/06/12 03:00:51;;;;;;;3.35;2.17;;;12.20;99.90;;;;;;5028412;28;20092;-70
2022/06/12 03:03:36;;;;;;;6.07;2.25;;;12.20;99.90;;;;;;5028352;28;20550;-70
2022/06/12 03:06:03;;;;;;;6.72;2.20;;;12.20;99.90;;;;;;5027799;28;20044;-70
2022/06/12 03:08:34;;;;;;;8.60;2.47;;;12.20;99.90;;;;;;5027680;28;20022;-70
2022/06/12 03:11:22;;;;;;;6.22;1.98;;;12.20;99.90;;;;;;5028416;28;20021;-70
2022/06/12 03:13:50;;;;;;;8.88;2.95;;;12.20;99.90;;;;;;5028524;28;20033;-70
2022/06/12 03:16:17;;;;;;;11.30;3.42;;;12.10;99.90;;;;;;5028326;28;20070;-70
2022/06/12 03:18:57;;;;;;;5.90;2.17;;;12.20;99.90;;;;;;5028365;28;20064;-70
2022/06/12 03:21:45;;;;;;;8.30;2.30;;;12.10;99.90;;;;;;5027822;28;20044;-70
2022/06/12 03:24:14;;;;;;;8.13;2.47;;;12.20;99.90;;;;;;5031372;28;20041;-70
2022/06/12 03:26:40;;;;;;;6.65;2.88;;;;;;;;;;5031928;28;20030;-71
2022/06/12 03:29:17;;;;;;;8.00;3.47;;;12.10;99.90;;;;;;5031930;28;20044;-70
2022/06/12 03:31:57;;;;;;;7.25;2.38;;;12.20;99.90;;;;;;5032072;28;20495;-70
2022/06/12 03:34:58;;;;;;;6.22;2.10;;;12.20;99.90;;;;;;5031273;28;20032;-70
2022/06/12 03:37:44;;;;;;;7.25;2.30;;;12.10;99.90;;;;;;5008929;28;20113;-70
2022/06/12 03:40:27;;;;;;;10.32;2.22;;;12.10;99.90;;;;;;5008980;28;20034;-70
2022/06/12 03:43:09;;;;;;;7.40;2.65;;;12.10;99.90;;;;;;5009695;28;20072;-70
2022/06/12 03:45:44;;;;;;;5.88;2.40;;;12.20;99.90;;;;;;5009586;28;20606;-71
2022/06/12 03:48:16;;;;;;;9.32;2.33;;;12.20;99.90;;;;;;5009535;28;20033;-70
2022/06/12 03:51:04;;;;;;;10.85;2.53;;;12.30;99.90;;;;;;5008970;28;20460;-70
2022/06/12 03:53:34;;;;;;;6.15;2.60;;;12.20;99.90;;;;;;4996025;28;20040;-70
2022/06/12 03:59:32;;;;;;;5.97;3.00;;;12.20;99.90;;;;;;5009297;28;20142;-70
2022/06/12 04:02:03;;;;;;;7.32;2.60;;;12.30;99.90;;;;;;5009441;28;20238;-71
2022/06/12 04:04:31;;;;;;;12.25;3.30;;;12.20;99.90;;;;;;5008516;28;20073;-70
2022/06/12 04:06:59;;;;;;;9.70;3.40;;;12.30;99.90;;;;;;5008032;28;20026;-70
2022/06/12 04:09:28;;;;;;;7.25;3.20;;;12.30;99.90;;;;;;5009224;28;20162;-70
2022/06/12 04:12:04;;;;;;;8.63;2.88;;;12.30;99.90;;;;;;5024675;28;20034;-70
2022/06/12 04:14:34;;;;;;;5.00;2.85;;;12.30;99.90;;;;;;5031202;28;20358;-70
2022/06/12 04:17:02;;;;;;;6.75;2.67;;;12.40;99.90;;;;;;5030970;28;20053;-71
2022/06/12 04:19:30;;;;;;;9.88;3.15;;;12.50;99.90;;;;;;5030880;28;20030;-70
2022/06/12 04:22:01;;;;;;;8.82;2.35;;;12.60;99.90;;;;;;5030979;28;20025;-70
2022/06/12 04:24:39;;;;;;;9.52;2.75;;;12.50;99.90;;;;;;5031083;28;20080;-70
2022/06/12 04:27:29;;;;;;;7.75;2.95;;;12.60;99.90;;;;;;5030653;28;20025;-70
2022/06/12 04:30:16;;;;;;;7.55;2.85;;;12.60;99.90;;;;;;5030872;28;20033;-71
2022/06/12 04:32:42;;;;;;;8.77;2.55;;;12.90;99.90;;;;;;5030865;28;20418;-71
2022/06/12 04:35:08;;;;;;;6.80;3.40;;;12.70;99.90;;;;;;5029971;28;20799;-70
2022/06/12 04:37:34;;;;;;;10.65;2.92;;;12.80;99.90;;;;;;5027924;28;20068;-70
2022/06/12 04:40:04;;;;;;;10.43;2.70;;;12.90;99.90;;;;;;5026088;28;20454;-71
2022/06/12 04:42:31;;;;;;;10.15;3.60;;;12.90;99.90;;;;;;5030510;28;20022;-70
2022/06/12 04:45:03;;;;;;;7.45;2.45;;;12.90;99.90;;;;;;5030412;28;20032;-70
2022/06/12 04:47:30;;;;;;;8.18;3.15;;;13.00;99.90;;;;;;5030224;28;20013;-70
2022/06/12 04:49:56;;;;;;;8.98;3.03;;;13.10;99.90;;;;;;5028731;28;20414;-70
2022/06/12 04:52:25;;;;;;;6.10;2.67;;;13.30;99.90;;;;;;5030199;28;20028;-70
2022/06/12 04:54:51;;;;;;;10.68;3.13;;;13.10;99.90;;;;;;5029926;28;20411;-71
2022/06/12 04:57:17;;;;;;;9.18;2.92;;;13.50;99.90;;;;;;5022245;28;20163;-70
2022/06/12 04:59:44;;;;;;;9.35;3.20;;;13.80;99.90;;;;;;5017006;28;20329;-70
2022/06/12 05:02:11;;;;;;;6.70;2.95;;;13.50;99.90;;;;;;5024752;28;20013;-70
2022/06/12 05:04:37;;;;;;;12.60;4.30;;;;;;;;;;5028014;28;20057;-73
2022/06/12 05:07:04;;;;;;;8.73;3.85;;;13.60;99.90;;;;;;5027810;28;20044;-73
2022/06/12 05:09:34;;;;;;;15.55;3.80;;;13.80;99.90;;;;;;5025534;28;20034;-73
2022/06/12 05:12:00;;;;;;;11.40;3.55;;;13.60;99.90;;;;;;5027519;28;20029;-71
2022/06/12 05:14:26;;;;;;;11.63;3.10;;;14.10;99.90;;;;;;5030165;28;20038;-70
2022/06/12 05:17:01;;;;;;;8.77;3.55;;;14.20;99.90;;;;;;5029573;28;20060;-71
2022/06/12 05:19:30;;;;;;;11.88;3.10;;;14.10;99.90;;;;;;5030332;28;20040;-70
2022/06/12 05:21:56;;;;;;;9.35;3.95;;;14.10;99.90;;;;;;5029681;28;20394;-71
2022/06/12 05:24:22;;;;;;;6.85;3.78;;;14.30;99.90;;;;;;5029837;28;20041;-70
2022/06/12 05:26:50;;;;;;;12.82;3.92;;;14.70;99.90;;;;;;5029727;28;20022;-70
2022/06/12 05:29:21;;;;;;;11.50;3.72;;;14.70;99.90;;;;;;5029836;28;20030;-70
2022/06/12 05:31:46;;;;;;;12.35;3.53;;;14.60;99.90;;;;;;5029370;28;20072;-70
2022/06/12 05:34:13;;;;;;;14.43;4.15;;;14.80;99.90;;;;;;5029643;28;20025;-70
2022/06/12 05:36:39;;;;;;;10.45;3.50;;;15.10;99.90;;;;;;5029045;28;20021;-70
2022/06/12 05:39:05;;;;;;;11.90;3.17;;;15.10;99.90;;;;;;5029260;28;20029;-71
2022/06/12 05:41:30;;;;;;;12.23;3.33;;;14.90;99.90;;;;;;5029660;28;20143;-71
2022/06/12 05:43:56;;;;;;;7.38;3.03;;;15.10;99.90;;;;;;5029343;28;20075;-70
2022/06/12 05:46:21;;;;;;;9.90;3.95;;;15.10;99.90;;;;;;5028181;28;20088;-71
2022/06/12 05:48:47;;;;;;;7.78;2.92;;;15.20;99.90;;;;;;5029488;28;20026;-71
2022/06/12 05:51:15;;;;;;;8.85;3.67;;;15.30;99.90;;;;;;5029161;28;20053;-71
2022/06/12 05:53:41;;;;;;;8.98;3.15;;;15.30;99.90;;;;;;5029571;28;20044;-71
2022/06/12 05:56:13;;;;;;;8.82;3.38;;;15.30;99.90;;;;;;5028722;28;20402;-71
2022/06/12 05:58:39;;;;;;;14.60;3.60;;;15.50;99.90;;;;;;5029502;28;20033;-70
2022/06/12 06:01:07;;;;;;;15.43;3.97;;;15.60;99.90;;;;;;5028429;28;20355;-71
2022/06/12 06:03:34;;;;;;;10.43;4.13;;;15.60;99.90;;;;;;5029561;28;20041;-70
2022/06/12 06:06:00;;;;;;;10.25;3.47;;;15.60;99.90;;;;;;5028178;28;20054;-71
2022/06/12 06:08:25;;;;;;;10.32;4.05;;;15.80;99.90;;;;;;5029216;28;20033;-71
2022/06/12 06:10:51;;;;;;;12.02;3.90;;;15.90;99.90;;;;;;5029018;28;20482;-70
2022/06/12 06:13:17;;;;;;;16.30;5.18;;;15.90;99.90;;;;;;5028828;28;20112;-71
2022/06/12 06:15:43;;;;;;;8.52;3.35;;;16.00;99.90;;;;;;5028867;28;20018;-71
2022/06/12 06:18:09;;;;;;;10.80;3.67;;;16.80;99.90;;;;;;5028711;28;20470;-71
2022/06/12 06:20:37;;;;;;;12.50;4.65;;;16.20;99.90;;;;;;5029207;28;20052;-71
2022/06/12 06:23:03;;;;;;;12.68;4.40;;;16.30;99.90;;;;;;5028369;28;20052;-70
2022/06/12 06:25:29;;;;;;;11.15;3.58;;;16.30;99.90;;;;;;5029026;28;20045;-71
2022/06/12 06:27:56;;;;;;;10.48;4.53;;;16.20;99.90;;;;;;5028536;28;20450;-71
2022/06/12 06:30:23;;;;;;;12.88;4.40;;;16.50;99.90;;;;;;5028769;28;20018;-70
2022/06/12 06:32:49;;;;;;;13.93;3.78;;;16.60;99.90;;;;;;5028713;28;20095;-70
2022/06/12 06:35:14;;;;;;;11.48;5.07;;;16.60;99.90;;;;;;5028555;28;20482;-71
2022/06/12 06:37:40;;;;;;;11.15;5.40;;;18.00;99.90;;;;;;5028231;28;20030;-71
2022/06/12 06:40:08;;;;;;;15.55;4.10;;;16.70;99.90;;;;;;5024970;28;20029;-70
2022/06/12 06:42:34;;;;;;;16.75;5.60;;;16.70;99.90;;;;;;5022169;28;20025;-70
2022/06/12 06:47:44;;;;;;;14.90;5.38;;;17.90;99.90;;;;;;5028445;28;20072;-70
2022/06/12 06:50:14;;;;;;;11.57;3.88;;;16.80;99.90;;;;;;5028023;28;20057;-71
2022/06/12 06:52:39;;;;;;;13.30;4.68;;;17.00;99.90;;;;;;5019411;28;20532;-71
2022/06/12 06:55:06;;;;;;;14.27;5.78;;;17.50;99.90;;;;;;5027975;28;20029;-71
2022/06/12 06:57:36;;;;;;;14.43;4.90;;;17.00;99.90;;;;;;5028532;28;20025;-71
2022/06/12 07:00:03;;;;;;;15.98;5.85;;;17.70;99.90;;;;;;5032195;28;20059;-71
2022/06/12 07:02:29;;;;;;;16.70;5.60;;;17.20;99.90;;;;;;5032430;28;20108;-71
2022/06/12 07:04:55;;;;;;;10.73;4.60;;;;;;;;;;5031695;28;20467;-72
2022/06/12 07:07:20;;;;;;;8.88;4.07;;;17.30;99.90;;;;;;5027092;28;20075;-71
2022/06/12 07:09:46;;;;;;;13.48;4.25;;;17.50;99.90;;;;;;5032287;28;20025;-72
2022/06/12 07:12:12;;;;;;;15.20;4.70;;;17.40;99.90;;;;;;5030131;28;20013;-72
2022/06/12 07:14:37;;;;;;;11.70;4.38;;;17.50;99.90;;;;;;5032494;28;20022;-71
2022/06/12 07:17:04;;;;;;;16.42;5.82;;;18.80;99.90;;;;;;5031609;28;20021;-72
2022/06/12 07:19:29;;;;;;;13.15;5.05;;;17.70;99.90;;;;;;5032337;28;20057;-71
2022/06/12 07:21:55;;;;;;;14.98;5.13;;;17.70;99.90;;;;;;5032078;28;20394;-72
2022/06/12 07:24:20;;;;;;;14.00;4.00;;;17.90;99.90;;;;;;5031734;28;20038;-72
2022/06/12 07:26:48;;;;;;;15.15;5.65;;;18.00;99.90;;;;;;5031660;28;20029;-71
2022/06/12 07:29:19;;;;;;;10.88;3.55;;;18.30;99.90;;;;;;5031692;28;20017;-72
2022/06/12 07:31:46;;;;;;;12.52;3.50;;;18.50;99.90;;;;;;5031962;28;20067;-72
2022/06/12 07:34:13;;;;;;;14.70;3.22;;;19.50;99.90;;;;;;5031953;28;20017;-72
2022/06/12 07:36:40;;;;;;;17.77;4.72;;;18.80;99.90;;;;;;5030851;28;20021;-72
2022/06/12 07:39:09;;;;;;;14.20;4.43;;;18.90;99.90;;;;;;5031552;28;20028;-72
2022/06/12 07:41:36;;;;;;;8.25;3.25;;;20.40;99.90;;;;;;5030024;28;20033;-72
2022/06/12 07:44:02;;;;;;;12.45;3.35;;;19.10;99.90;;;;;;5031269;28;20038;-72
2022/06/12 07:46:28;;;;;;;9.43;3.17;;;19.20;99.90;;;;;;5031889;28;20091;-72
2022/06/12 07:48:53;;;;;;;11.07;3.00;;;19.20;99.90;;;;;;5031602;28;20095;-70
2022/06/12 07:51:20;;;;;;;11.63;4.43;;;19.40;99.60;;;;;;5031088;28;20035;-70
2022/06/12 07:53:47;;;;;;;9.52;2.92;;;19.50;99.40;;;;;;5031435;28;20033;-71
2022/06/12 07:56:14;;;;;;;9.77;3.78;;;19.90;99.10;;;;;;5030536;28;20030;-71
2022/06/12 07:58:40;;;;;;;12.48;3.40;;;19.80;98.90;;;;;;5031572;28;20436;-70
2022/06/12 08:01:08;;;;;;;10.55;3.08;;;20.30;98.70;;;;;;5030715;28;20067;-71
2022/06/12 08:03:34;;;;;;;12.23;3.88;;;19.90;98.70;;;;;;5031402;28;20037;-71
2022/06/12 08:06:00;;;;;;;9.55;2.83;;;19.90;98.50;;;;;;5030261;28;20071;-70
2022/06/12 08:08:27;;;;;;;10.55;2.95;;;19.90;98.70;;;;;;5031188;28;20096;-70
2022/06/12 08:10:53;;;;;;;7.50;2.65;;;20.40;98.70;;;;;;5029625;28;20412;-70
2022/06/12 08:13:19;;;;;;;8.18;2.80;;;20.00;98.50;;;;;;5030997;28;20124;-70
2022/06/12 08:15:47;;;;;;;11.75;3.00;;;19.90;98.30;;;;;;5030974;28;20037;-70
2022/06/12 08:18:14;;;;;;;12.85;3.17;;;20.70;98.50;;;;;;5030885;28;20022;-70
2022/06/12 08:20:45;;;;;;;8.75;2.80;;;19.70;98.30;;;;;;5031046;28;20034;-71
2022/06/12 08:23:27;;;;;;;11.98;3.08;;;19.70;98.50;;;;;;5030636;28;20037;-71
2022/06/12 08:26:02;;;;;;;9.32;2.70;;;19.90;98.50;;;;;;5030554;28;20034;-71
2022/06/12 08:28:30;;;;;;;12.20;2.72;;;19.80;98.40;;;;;;5030821;28;20026;-70
2022/06/12 08:30:56;;;;;;;13.38;2.55;;;19.70;98.20;;;;;;5030783;28;20030;-71
2022/06/12 08:33:23;;;;;;;12.32;3.13;;;20.90;98.40;;;;;;5030438;28;20026;-71
2022/06/12 08:35:49;;;;;;;9.82;2.70;;;20.00;98.10;;;;;;5027701;28;20036;-71
2022/06/12 08:38:15;;;;;;;9.85;2.50;;;20.00;98.00;;;;;;5023035;28;20021;-71
2022/06/12 08:41:08;;;;;;;10.73;3.38;;;20.10;97.90;;;;;;5030028;28;20021;-71
2022/06/12 08:43:43;;;;;;;7.03;2.85;;;20.20;97.30;;;;;;5030475;28;20501;-71
2022/06/12 08:46:53;;;;;;;12.23;3.30;;;20.20;98.00;;;;;;5030137;28;20049;-71
2022/06/12 08:49:25;;;;;;;10.70;2.67;;;20.30;97.10;;;;;;5024528;28;20036;-71
2022/06/12 08:52:01;;;;;;;9.35;2.65;;;20.30;97.20;;;;;;5030455;28;20410;-71
2022/06/12 08:54:40;;;;;;;5.97;2.70;;;21.30;97.80;;;;;;5029849;28;20051;-70
2022/06/12 08:57:16;;;;;;;3.58;1.73;;;20.30;96.90;;;;;;5029759;28;20029;-71
2022/06/12 08:59:53;;;;;;;9.68;2.60;;;20.30;97.40;;;;;;5030302;28;20021;-71
2022/06/12 09:02:28;;;;;;;6.72;2.60;;;20.40;97.20;;;;;;5029961;28;20040;-71
2022/06/12 09:04:54;;;;;;;7.78;2.47;;;20.30;96.20;;;;;;5029959;28;20111;-71
2022/06/12 09:07:33;;;;;;;12.40;4.15;;;20.50;96.70;;;;;;5029086;28;20261;-71
2022/06/12 09:10:07;;;;;;;7.65;2.15;;;20.50;96.70;;;;;;5029501;28;20099;-71
2022/06/12 09:12:45;;;;;;;7.47;2.30;;;20.60;95.80;;;;;;5029906;28;20417;-71
2022/06/12 09:15:34;;;;;;;11.85;2.90;;;20.70;96.50;;;;;;5029643;28;20021;-72
2022/06/12 09:18:28;;;;;;;11.38;3.15;;;20.70;95.70;;;;;;5029381;28;20018;-71
2022/06/12 09:21:00;;;;;;;5.97;2.13;;;20.90;95.40;;;;;;5029445;28;20041;-70
2022/06/12 09:24:20;;;;;;;7.18;1.70;;;21.10;95.90;;;;;;5015649;28;20099;-71
2022/06/12 09:26:51;;;;;;;7.40;2.00;;;21.20;94.50;;;;;;5003229;28;20549;-70
2022/06/12 09:29:42;;;;;;;7.93;1.50;;;21.30;93.90;;;;;;5003124;28;20052;-70
2022/06/12 09:32:40;;;;;;;4.30;1.60;;;21.40;92.60;;;;;;5006024;28;20026;-70
2022/06/12 09:35:30;;;;;;;5.80;1.48;;;21.40;92.40;;;;;;5007050;28;20445;-69
2022/06/12 09:38:19;;;;;;;4.07;1.38;;;21.70;92.80;;;;;;5006984;28;20022;-70
2022/06/12 09:41:20;;;;;;;4.35;1.38;;;21.40;90.80;;;;;;5007624;28;20395;-70
2022/06/12 09:44:14;;;;;;;4.70;1.20;;;21.50;90.90;;;;;;4997223;28;20069;-70
2022/06/12 09:46:58;;;;;;;;;;;21.50;90.60;;;;;;5008224;28;20498;-70
2022/06/12 09:49:31;;;;;;;4.25;1.00;;;21.40;90.70;;;;;;5007353;28;19948;-69
2022/06/12 09:52:21;;;;;;;6.60;1.58;;;21.60;90.10;;;;;;5007055;28;20180;-70
2022/06/12 09:54:49;;;;;;;7.63;1.73;;;21.70;90.60;;;;;;5007242;28;20034;-70
2022/06/12 09:57:42;;;;;;;5.05;1.90;;;21.80;89.40;;;;;;5006124;28;20030;-70
2022/06/12 10:00:22;;;;;;;10.48;3.17;;;21.80;90.00;;;;;;5014662;28;20161;-69
2022/06/12 10:03:05;;;;;;;9.38;1.63;;;21.70;90.40;;;;;;5021647;28;20076;-70
2022/06/12 10:05:55;;;;;;;11.82;2.38;;;21.70;91.30;;;;;;5016935;28;20050;-70
2022/06/12 10:08:49;;;;;;;6.47;1.95;;;21.70;90.70;;;;;;5028938;28;20040;-70
2022/06/12 10:11:15;;;;;;;;;;;21.90;90.50;;;;;;5029494;28;20018;-70
2022/06/12 10:13:55;;;;;;;5.97;2.53;;;22.80;91.60;;;;;;5028958;28;19905;-69
2022/06/12 10:17:02;;;;;;;5.30;2.25;;;23.20;91.50;;;;;;5028725;28;20493;-69
2022/06/12 10:19:28;;;;;;;7.43;2.50;;;22.50;90.10;;;;;;5020058;28;20347;-68
2022/06/12 10:21:58;;;;;;;5.93;1.77;;;22.40;89.50;;;;;;5028581;28;20083;-68
2022/06/12 10:24:24;;;;;;;6.28;1.67;;;22.70;89.80;;;;;;5027184;28;20033;-69
2022/06/12 10:26:56;;;;;;;6.95;2.20;;;22.70;89.00;;;;;;5027479;28;20048;-68
2022/06/12 10:29:24;;;;;;;7.18;1.50;;;23.00;89.40;;;;;;5029101;28;20021;-68
2022/06/12 10:32:02;;;;;;;8.35;1.88;;;23.00;88.50;;;;;;5028142;28;20037;-69
2022/06/12 10:34:30;;;;;;;6.80;1.77;;;23.30;89.30;;;;;;5026516;28;20079;-68
2022/06/12 10:37:20;;;;;;;7.75;2.10;;;23.20;88.60;;;;;;5027193;28;20052;-68
2022/06/12 10:39:58;;;;;;;7.07;2.13;;;23.50;87.00;;;;;;5027992;28;20083;-68
2022/06/12 10:42:50;;;;;;;4.68;1.77;;;23.70;87.70;;;;;;5026916;28;20025;-68
2022/06/12 10:45:28;;;;;;;6.00;1.70;;;23.60;87.70;;;;;;5026557;28;20184;-68
2022/06/12 10:47:57;;;;;;;8.25;2.20;;;23.90;87.60;;;;;;5023836;28;20165;-69
2022/06/12 10:50:28;;;;;;;5.03;2.15;;;24.00;86.60;;;;;;5027812;28;20036;-69
2022/06/12 10:52:56;;;;;;;8.38;2.47;;;23.90;86.30;;;;;;5028752;28;20096;-69
2022/06/12 10:55:35;;;;;;;6.85;1.90;;;24.00;83.40;;;;;;5028561;28;20379;-68
2022/06/12 10:58:12;;;;;;;8.05;2.15;;;24.00;85.70;;;;;;5026295;28;20135;-69
2022/06/12 11:00:42;;;;;;;6.63;2.33;;;23.80;83.90;;;;;;5028681;28;20498;-69
2022/06/12 11:03:35;;;;;;;6.40;2.10;;;24.70;85.70;;;;;;5018525;28;20049;-69
2022/06/12 11:06:12;;;;;;;5.03;1.65;;;23.60;84.00;;;;;;5028085;28;20141;-69
2022/06/12 11:09:15;;;;;;;3.88;1.13;;;23.80;85.30;;;;;;5019347;28;20034;-69
2022/06/12 11:12:03;;;;;;;8.02;1.77;;;23.90;83.30;;;;;;5027315;28;20048;-69
2022/06/12 11:14:48;;;;;;;6.05;1.65;;;23.90;82.40;;;;;;5028553;28;20127;-69
2022/06/12 11:17:16;;;;;;;5.18;1.65;;;24.30;84.00;;;;;;5018995;28;20014;-69
2022/06/12 11:20:04;;;;;;;5.80;1.50;;;23.60;81.10;;;;;;5026271;28;20430;-69
2022/06/12 11:22:36;;;;;;;5.22;1.42;;;23.60;83.10;;;;;;5022004;28;20022;-69
2022/06/12 11:25:47;;;;;;;4.32;1.60;;;23.70;83.90;;;;;;5027299;28;20038;-69
2022/06/12 11:28:31;;;;;;;8.02;1.38;;;23.80;81.90;;;;;;5027570;28;20108;-69
2022/06/12 11:31:37;;;;;;;4.93;1.60;;;23.70;81.90;;;;;;5027948;28;20025;-70
2022/06/12 11:34:06;;;;;;;6.30;1.73;;;23.50;81.50;;;;;;5027211;28;20021;-69
2022/06/12 11:36:57;;;;;;;7.60;1.73;;;23.80;82.80;;;;;;5027307;28;20348;-69
2022/06/12 11:39:28;;;;;;;4.50;1.52;;;23.70;80.30;;;;;;5025575;28;20025;-69
2022/06/12 11:42:16;;;;;;;4.32;1.70;;;23.30;79.30;;;;;;5014048;28;20032;-69
2022/06/12 11:45:25;;;;;;;5.03;1.60;;;23.10;81.90;;;;;;5030426;28;20429;-69
2022/06/12 11:48:17;;;;;;;4.15;1.40;;;23.00;80.70;;;;;;5029206;28;20018;-70
2022/06/12 11:51:03;;;;;;;5.97;1.45;;;22.90;80.60;;;;;;5031450;28;20024;-69
2022/06/12 11:53:49;;;;;;;7.28;1.27;;;23.00;80.60;;;;;;5028863;28;20021;-69
2022/06/12 11:56:36;;;;;;;6.18;1.17;;;23.50;82.50;;;;;;5024412;28;20024;-69
2022/06/12 11:59:11;;;;;;;6.68;1.23;;;23.10;79.50;;;;;;5044937;28;20038;-69
2022/06/12 12:02:01;;;;;;;3.55;1.30;;;23.00;80.00;;;;;;5029669;28;20056;-69
2022/06/12 12:04:48;;;;;;;5.22;1.10;;;23.00;81.90;;;;;;5031213;28;20049;-69
2022/06/12 12:07:17;;;;;;;6.03;1.10;;;23.00;79.00;;;;;;5031435;28;20060;-69
2022/06/12 12:09:59;;;;;;;6.95;1.70;;;22.80;80.80;;;;;;5029948;28;20025;-69
2022/06/12 12:12:35;;;;;;;3.88;1.23;;;22.80;78.80;;;;;;5029259;28;20057;-69
2022/06/12 12:15:05;;;;;;;4.78;1.08;;;22.60;81.20;;;;;;5020775;28;20025;-69
2022/06/12 12:17:40;;;;;;;3.80;0.95;;;22.60;80.80;;;;;;5030755;28;20017;-69
2022/06/12 12:20:17;;;;;;;6.22;1.25;;;22.40;81.30;;;;;;5020953;28;20037;-69
2022/06/12 12:23:08;;;;;;;4.82;1.13;;;22.50;79.30;;;;;;5031328;28;20022;-69
2022/06/12 12:25:39;;;;;;;4.13;0.98;;;22.60;79.00;;;;;;5030915;28;20136;-69
2022/06/12 12:28:14;;;;;;;2.00;0.80;;;22.80;80.30;;;;;;5030833;28;20036;-69
2022/06/12 12:30:41;;;;;;;3.20;1.10;;;22.80;79.80;;;;;;5030579;28;20029;-69
2022/06/12 12:33:17;;;;;;;5.43;1.10;;;22.80;79.20;;;;;;5030927;28;20032;-69
2022/06/12 12:41:21;;;;;;;4.93;1.48;;;22.90;76.90;;;;;;5030819;28;20037;-70
2022/06/12 12:43:47;;;;;;;2.60;0.88;;;22.80;78.70;;;;;;5030812;28;20090;-69
2022/06/12 12:46:13;;;;;;;5.78;1.02;;;23.10;78.40;;;;;;5029978;28;20029;-68
2022/06/12 12:48:47;;;;;;;2.55;0.70;;;22.80;77.20;;;;;;5030052;28;20030;-69
2022/06/12 12:51:26;;;;;;;2.92;0.88;;;22.70;77.90;;;;;;5030697;28;20029;-69
2022/06/12 12:53:52;;;;;;;3.78;1.00;;;22.60;77.20;;;;;;5030717;28;20463;-69
2022/06/12 12:56:31;;;;;;;2.50;1.10;;;23.50;76.80;;;;;;5030332;28;20061;-69
2022/06/12 12:59:05;;;;;;;4.72;1.55;;;22.60;75.20;;;;;;5028152;28;20033;-69
2022/06/12 13:01:41;;;;;;;3.47;0.98;;;22.70;74.90;;;;;;5023129;28;20151;-68
2022/06/12 13:04:20;;;;;;;3.30;1.13;;;22.80;76.50;;;;;;5029406;28;20021;-67
2022/06/12 13:07:24;;;;;;;2.05;0.85;;;23.00;74.40;;;;;;5025636;28;20030;-67
2022/06/12 13:09:50;;;;;;;;;;;22.70;74.40;;;;;;5029558;28;20052;-68
2022/06/12 13:13:07;;;;;;;2.35;0.70;;;22.70;76.50;;;;;;5028138;28;20346;-68
2022/06/12 13:15:43;;;;;;;1.75;0.50;;;22.60;73.60;;;;;;5006806;28;20499;-68
2022/06/12 13:18:41;;;;;;;1.67;0.50;;;22.70;74.60;;;;;;5001697;28;20026;-68
2022/06/12 13:21:23;;;;;;;1.98;0.70;;;22.70;72.80;;;;;;5006947;28;20065;-69
2022/06/12 13:24:06;;;;;;;1.38;0.60;;;22.90;73.70;;;;;;5007544;28;20145;-69
2022/06/12 13:26:33;;;;;;;2.50;0.65;;;22.80;70.40;;;;;;5008192;28;20117;-69
2022/06/12 13:29:01;;;;;;;2.45;0.63;;;22.80;71.50;;;;;;4993230;28;20030;-69
2022/06/12 13:31:29;;;;;;;1.90;0.93;;;23.10;71.50;;;;;;4991033;28;20105;-69
2022/06/12 13:33:57;;;;;;;4.47;0.77;;;23.20;70.80;;;;;;4993304;28;20028;-69
2022/06/12 13:36:33;;;;;;;2.17;0.70;;;23.40;70.60;;;;;;4990603;28;20026;-69
2022/06/12 13:39:05;;;;;;;1.67;0.70;;;23.50;70.10;;;;;;4993026;28;20029;-69